Time;durP1;ratioP1;P1;durP2;ratioP2;P2;SDS_P1;SDS_P2;PMS_P1;PMS_P2;Temp;Humidity;BMP_temperature;BMP_pressure;BME280_temperature;BME280_humidity;BME280_pressure;Samples;Min_cycle;Max_cycle;Signal;HPM_P1;HPM_P2
2021/01/24 00:00:10;;;;;;;;;;;;;;;20.42;38.34;99962.53;5056265;28;803;-47
2021/01/24 00:02:38;;;;;;;;;;;;;;;20.22;39.04;99974.97;5055844;28;676;-48
2021/01/24 00:05:04;;;;;;;;;;;;;;;20.10;39.20;99978.28;5055375;28;812;-55
2021/01/24 00:10:26;;;;;;;;;;;;;;;20.28;38.68;99971.72;5055730;28;1910;-55
2021/01/24 00:12:51;;;;;;;;;;;;;;;20.34;38.50;99975.97;5055389;28;796;-58
2021/01/24 00:15:16;;;;;;;;;;;;;;;20.44;38.46;99974.88;5055450;28;803;-54
2021/01/24 00:17:42;;;;;;;;;;;;;;;20.42;38.40;99957.00;5065562;28;1099;-55
2021/01/24 00:20:08;;;;;;;;;;;;;;;20.46;38.25;99956.03;5079123;28;784;-48
2021/01/24 00:22:35;;;;;;;;;;;;;;;20.42;38.31;99957.81;5072142;28;998;-57
2021/01/24 00:25:00;;;;;;;;;;;;;;;20.65;37.86;99952.16;5059314;28;759;-56
2021/01/24 00:27:25;;;;;;;;;;;;;;;20.54;38.13;99954.44;5059036;28;871;-58
2021/01/24 00:29:51;;;;;;;;;;;;;;;20.58;38.11;99949.06;5059319;28;1985;-55
2021/01/24 00:32:17;;;;;;;;;;;;;;;20.50;38.16;99954.25;5059624;28;748;-56
2021/01/24 00:34:43;;;;;;;;;;;;;;;20.62;37.95;99939.00;5058995;28;855;-50
2021/01/24 00:40:44;;;;;;;;;;;;;;;20.73;37.80;99931.28;5058819;28;602;-51
2021/01/24 00:43:09;;;;;;;;;;;;;;;20.71;38.05;99936.31;5058806;28;828;-56
2021/01/24 00:45:35;;;;;;;;;;;;;;;20.74;37.70;99932.91;5058937;28;721;-56
2021/01/24 00:48:00;;;;;;;;;;;;;;;20.56;38.02;99918.22;5058664;28;820;-56
2021/01/24 00:50:26;;;;;;;;;;;;;;;20.59;38.10;99917.56;5058702;28;1975;-57
2021/01/24 00:52:51;;;;;;;;;;;;;;;20.64;37.87;99918.22;5041015;28;1213;-56
2021/01/24 00:55:16;;;;;;;;;;;;;;;20.74;37.85;99919.09;5040754;28;1213;-57
2021/01/24 00:57:42;;;;;;;;;;;;;;;20.79;37.63;99919.75;5058660;28;783;-57
2021/01/24 01:00:08;;;;;;;;;;;;;;;20.54;38.22;99921.31;5058761;28;804;-56
2021/01/24 01:02:33;;;;;;;;;;;;;;;20.58;38.06;99915.94;5058444;28;953;-51
2021/01/24 01:04:58;;;;;;;;;;;;;;;20.34;38.60;99911.66;5058451;28;760;-48
2021/01/24 01:07:55;;;;;;;;;;;;;;;20.17;38.96;99904.13;5064033;28;982;-55
2021/01/24 01:10:24;;;;;;;;;;;;;;;20.22;38.84;99903.19;5077607;28;1909;-56
2021/01/24 01:12:50;;;;;;;;;;;;;;;20.36;38.61;99914.91;5078484;28;788;-56
2021/01/24 01:15:15;;;;;;;;;;;;;;;20.44;38.54;99910.53;5078167;28;815;-58
2021/01/24 01:17:41;;;;;;;;;;;;;;;20.49;38.23;99904.88;5077968;28;1099;-57
2021/01/24 01:20:07;;;;;;;;;;;;;;;20.31;38.78;99901.25;5078442;28;783;-50
2021/01/24 01:22:32;;;;;;;;;;;;;;;20.34;38.45;99900.59;5071493;28;998;-56
2021/01/24 01:24:57;;;;;;;;;;;;;;;20.40;38.44;99893.81;5057832;28;879;-47
2021/01/24 01:27:23;;;;;;;;;;;;;;;20.21;39.04;99901.56;5056962;28;819;-49
2021/01/24 01:29:49;;;;;;;;;;;;;;;20.08;39.01;99903.28;5057946;28;1956;-49
2021/01/24 01:32:14;;;;;;;;;;;;;;;20.12;39.08;99899.56;5057876;28;760;-55
2021/01/24 01:34:39;;;;;;;;;;;;;;;20.29;38.60;99901.56;5057873;28;808;-56
2021/01/24 01:40:40;;;;;;;;;;;;;;;20.07;39.27;99888.66;5057677;28;598;-54
2021/01/24 01:43:05;;;;;;;;;;;;;;;20.10;38.99;99890.78;5057836;28;828;-57
2021/01/24 01:45:31;;;;;;;;;;;;;;;20.14;39.01;99890.97;5057742;28;798;-56
2021/01/24 01:47:57;;;;;;;;;;;;;;;20.29;38.47;99896.03;5057591;28;748;-57
2021/01/24 01:50:23;;;;;;;;;;;;;;;20.27;38.77;99884.53;5057828;28;1977;-50
2021/01/24 01:52:48;;;;;;;;;;;;;;;20.29;38.53;99881.44;5057392;28;962;-49
2021/01/24 01:55:13;;;;;;;;;;;;;;;19.99;39.33;99883.91;5057257;28;794;-54
2021/01/24 01:57:39;;;;;;;;;;;;;;;19.89;39.12;99885.00;5057409;28;799;-56
2021/01/24 02:00:05;;;;;;;;;;;;;;;20.14;39.00;99889.00;5057665;28;740;-57
2021/01/24 02:03:15;;;;;;;;;;;;;;;20.12;38.81;99883.00;5057465;28;669;-50
2021/01/24 02:05:55;;;;;;;;;;;;;;;19.83;39.41;99900.09;5035305;28;1273;-55
2021/01/24 02:08:21;;;;;;;;;;;;;;;20.03;39.23;99884.09;5021470;28;1181;-50
2021/01/24 02:10:49;;;;;;;;;;;;;;;20.03;39.15;99887.66;5038605;28;1910;-55
2021/01/24 02:13:16;;;;;;;;;;;;;;;19.87;39.31;99887.28;5039588;28;752;-53
2021/01/24 02:15:42;;;;;;;;;;;;;;;19.98;39.20;99887.84;5039346;28;740;-56
2021/01/24 02:18:07;;;;;;;;;;;;;;;20.20;38.67;99883.34;5066155;28;1158;-55
2021/01/24 02:20:32;;;;;;;;;;;;;;;20.14;38.91;99882.69;5059467;28;859;-56
2021/01/24 02:22:58;;;;;;;;;;;;;;;19.93;39.20;99879.69;5066576;28;947;-52
2021/01/24 02:25:42;;;;;;;;;;;;;;;19.97;39.44;99869.63;5056951;28;776;-48
2021/01/24 02:28:26;;;;;;;;;;;;;;;20.10;39.08;99870.66;5057089;28;812;-55
2021/01/24 02:30:51;;;;;;;;;;;;;;;20.07;39.15;99869.34;5057308;28;1909;-56
2021/01/24 02:33:18;;;;;;;;;;;;;;;20.20;38.85;99875.06;5039191;28;827;-56
2021/01/24 02:35:44;;;;;;;;;;;;;;;20.25;38.55;99858.38;5057069;28;796;-55
2021/01/24 02:38:21;;;;;;;;;;;;;;;20.16;38.88;99850.88;5056260;28;958;-56
2021/01/24 02:40:48;;;;;;;;;;;;;;;19.92;39.57;99851.28;5040481;28;772;-48
2021/01/24 02:43:14;;;;;;;;;;;;;;;20.07;39.02;99850.03;5038937;28;804;-59
2021/01/24 02:45:43;;;;;;;;;;;;;;;19.98;39.21;99855.53;5056581;28;768;-54
2021/01/24 02:48:09;;;;;;;;;;;;;;;19.96;39.47;99848.69;5038869;28;839;-46
2021/01/24 02:50:35;;;;;;;;;;;;;;;19.89;39.46;99851.09;5056399;28;1906;-56
2021/01/24 02:53:00;;;;;;;;;;;;;;;19.86;39.53;99841.50;5056506;28;1039;-50
2021/01/24 02:55:26;;;;;;;;;;;;;;;19.95;39.33;99834.09;5038433;28;958;-51
2021/01/24 02:57:52;;;;;;;;;;;;;;;20.02;39.29;99832.81;5056297;28;752;-51
2021/01/24 03:00:17;;;;;;;;;;;;;;;19.93;39.48;99838.28;5038769;28;839;-49
2021/01/24 03:02:43;;;;;;;;;;;;;;;19.87;39.29;99828.56;5056212;28;803;-52
2021/01/24 03:05:09;;;;;;;;;;;;;;;20.00;39.19;99835.88;5056118;28;769;-51
2021/01/24 03:07:49;;;;;;;;;;;;;;;19.96;39.10;99827.44;5056154;28;971;-49
2021/01/24 03:10:47;;;;;;;;;;;;;;;19.83;39.47;99834.69;5043517;28;1972;-48
2021/01/24 03:13:19;;;;;;;;;;;;;;;20.04;39.02;99827.78;5038552;28;828;-52
2021/01/24 03:15:44;;;;;;;;;;;;;;;19.65;39.85;99819.16;5056128;28;776;-47
2021/01/24 03:18:10;;;;;;;;;;;;;;;19.59;40.04;99825.97;5048150;28;1116;-50
2021/01/24 03:20:36;;;;;;;;;;;;;;;19.89;39.62;99826.28;5076466;28;775;-54
2021/01/24 03:23:02;;;;;;;;;;;;;;;19.96;39.32;99818.34;5065334;28;962;-54
2021/01/24 03:25:27;;;;;;;;;;;;;;;20.07;39.27;99824.38;5038393;28;788;-51
2021/01/24 03:27:53;;;;;;;;;;;;;;;20.01;38.91;99820.97;5056194;28;764;-55
2021/01/24 03:30:18;;;;;;;;;;;;;;;19.95;39.14;99816.69;5038861;28;1909;-47
2021/01/24 03:32:44;;;;;;;;;;;;;;;19.76;39.66;99809.47;5055601;28;869;-56
2021/01/24 03:35:10;;;;;;;;;;;;;;;19.80;39.53;99812.47;5038342;28;967;-53
2021/01/24 03:40:47;;;;;;;;;;;;;;;20.03;39.00;99788.31;5038294;28;1209;-51
2021/01/24 03:43:13;;;;;;;;;;;;;;;20.12;39.06;99785.59;5056040;28;831;-53
2021/01/24 03:45:38;;;;;;;;;;;;;;;20.15;38.65;99771.97;5055551;28;883;-46
2021/01/24 03:48:04;;;;;;;;;;;;;;;20.09;39.03;99767.75;5055891;28;804;-52
2021/01/24 03:50:29;;;;;;;;;;;;;;;20.25;38.42;99783.84;5056206;28;1902;-50
2021/01/24 03:52:55;;;;;;;;;;;;;;;20.13;39.01;99785.28;5059370;28;962;-53
2021/01/24 03:55:20;;;;;;;;;;;;;;;20.07;39.13;99781.03;5060116;28;784;-51
2021/01/24 03:57:46;;;;;;;;;;;;;;;19.87;39.45;99773.38;5059951;28;803;-49
2021/01/24 04:00:11;;;;;;;;;;;;;;;19.77;39.68;99766.19;5042189;28;757;-51
2021/01/24 04:02:39;;;;;;;;;;;;;;;19.97;39.20;99764.78;5059851;28;815;-53
2021/01/24 04:05:05;;;;;;;;;;;;;;;20.03;39.04;99763.50;5060002;28;820;-55
2021/01/24 04:08:05;;;;;;;;;;;;;;;19.80;39.50;99763.59;5040913;28;1035;-54
2021/01/24 04:10:57;;;;;;;;;;;;;;;19.85;39.41;99761.84;5057817;28;1977;-47
2021/01/24 04:13:22;;;;;;;;;;;;;;;20.01;39.38;99771.28;5059521;28;787;-52
2021/01/24 04:15:48;;;;;;;;;;;;;;;19.98;39.07;99778.25;5041420;28;922;-53
2021/01/24 04:18:13;;;;;;;;;;;;;;;20.16;38.71;99768.06;5069818;28;1140;-48
2021/01/24 04:20:39;;;;;;;;;;;;;;;20.08;39.03;99779.91;5079316;28;795;-52
2021/01/24 04:23:04;;;;;;;;;;;;;;;20.16;38.88;99775.53;5067629;28;919;-45
2021/01/24 04:25:30;;;;;;;;;;;;;;;20.17;38.69;99771.63;5059284;28;875;-47
2021/01/24 04:27:55;;;;;;;;;;;;;;;20.17;38.84;99769.69;5059114;28;756;-56
2021/01/24 04:30:21;;;;;;;;;;;;;;;20.22;38.99;99778.97;5058981;28;1914;-56
2021/01/24 04:32:46;;;;;;;;;;;;;;;20.35;38.37;99798.13;5059152;28;831;-56
2021/01/24 04:35:12;;;;;;;;;;;;;;;20.20;38.96;99786.75;5058981;28;803;-56
2021/01/24 04:38:14;;;;;;;;;;;;;;;20.35;38.46;99776.03;5058637;28;970;-56
2021/01/24 04:40:50;;;;;;;;;;;;;;;20.08;39.26;99777.16;5058750;28;732;-56
2021/01/24 04:43:16;;;;;;;;;;;;;;;20.08;39.55;99782.66;5059121;28;847;-54
2021/01/24 04:45:41;;;;;;;;;;;;;;;20.08;39.32;99776.34;5058627;28;859;-56
2021/01/24 04:48:07;;;;;;;;;;;;;;;20.08;39.32;99777.16;5041518;28;771;-60
2021/01/24 04:50:32;;;;;;;;;;;;;;;20.13;39.31;99777.00;5058841;28;1985;-46
2021/01/24 04:52:58;;;;;;;;;;;;;;;19.95;39.76;99773.38;5058174;28;1006;-51
2021/01/24 04:55:24;;;;;;;;;;;;;;;20.00;39.52;99764.13;5058504;28;819;-56
2021/01/24 04:57:51;;;;;;;;;;;;;;;20.18;38.96;99753.94;5058831;28;808;-56
2021/01/24 05:00:16;;;;;;;;;;;;;;;20.11;39.44;99765.47;5058379;28;761;-59
2021/01/24 05:02:42;;;;;;;;;;;;;;;20.27;39.13;99757.53;5058608;28;788;-55
2021/01/24 05:05:08;;;;;;;;;;;;;;;20.32;39.02;99759.31;5058481;28;761;-49
2021/01/24 05:08:09;;;;;;;;;;;;;;;20.23;38.96;99755.72;5040167;28;1021;-58
2021/01/24 05:11:07;;;;;;;;;;;;;;;20.18;39.01;99760.25;5072350;28;1126;-56
2021/01/24 05:13:33;;;;;;;;;;;;;;;20.33;38.83;99756.22;5077438;28;835;-55
2021/01/24 05:15:58;;;;;;;;;;;;;;;20.40;38.59;99755.75;5077990;28;805;-47
2021/01/24 05:18:24;;;;;;;;;;;;;;;20.41;38.83;99757.38;5078400;28;1142;-59
2021/01/24 05:20:50;;;;;;;;;;;;;;;20.31;38.99;99768.72;5078179;28;816;-50
2021/01/24 05:23:18;;;;;;;;;;;;;;;20.30;38.71;99762.41;5065110;28;951;-56
2021/01/24 05:25:44;;;;;;;;;;;;;;;20.36;38.79;99765.81;5040282;28;843;-58
2021/01/24 05:28:16;;;;;;;;;;;;;;;20.43;38.58;99771.66;5058336;28;736;-48
2021/01/24 05:30:41;;;;;;;;;;;;;;;20.33;39.00;99770.03;5057766;28;1906;-59
2021/01/24 05:33:07;;;;;;;;;;;;;;;20.11;39.51;99759.94;5074533;28;880;-60
2021/01/24 05:35:35;;;;;;;;;;;;;;;20.06;39.61;99762.84;5077836;28;764;-59
2021/01/24 05:38:06;;;;;;;;;;;;;;;20.20;39.30;99757.19;5049398;28;1140;-61
2021/01/24 05:40:38;;;;;;;;;;;;;;;20.37;38.73;99770.22;5058031;28;847;-51
2021/01/24 05:43:03;;;;;;;;;;;;;;;20.38;38.95;99771.81;5057711;28;820;-57
2021/01/24 05:45:29;;;;;;;;;;;;;;;20.09;39.35;99778.78;5057522;28;859;-45
2021/01/24 05:47:54;;;;;;;;;;;;;;;20.05;39.58;99776.97;5040232;28;1354;-56
2021/01/24 05:50:20;;;;;;;;;;;;;;;20.12;39.45;99772.63;5040049;28;1981;-46
2021/01/24 05:52:46;;;;;;;;;;;;;;;20.27;39.07;99778.78;5057199;28;967;-55
2021/01/24 05:55:11;;;;;;;;;;;;;;;20.06;39.20;99768.34;5055764;28;807;-58
2021/01/24 05:57:39;;;;;;;;;;;;;;;19.80;40.08;99777.41;5038974;28;836;-49
2021/01/24 06:00:05;;;;;;;;;;;;;;;20.08;39.60;99766.09;5057266;28;763;-45
2021/01/24 06:02:31;;;;;;;;;;;;;;;19.84;40.11;99763.78;5057447;28;784;-57
2021/01/24 06:04:57;;;;;;;;;;;;;;;19.83;40.12;99770.44;5057306;28;764;-57
2021/01/24 06:07:22;;;;;;;;;;;;;;;20.03;39.53;99760.72;5056897;28;935;-58
2021/01/24 06:09:48;;;;;;;;;;;;;;;20.08;39.29;99766.09;5059522;28;1905;-57
2021/01/24 06:12:15;;;;;;;;;;;;;;;20.03;39.37;99763.50;5077643;28;842;-59
2021/01/24 06:14:41;;;;;;;;;;;;;;;19.88;39.80;99766.69;5075107;28;846;-58
2021/01/24 06:17:25;;;;;;;;;;;;;;;19.88;39.64;99761.19;5077187;28;1099;-56
2021/01/24 06:19:54;;;;;;;;;;;;;;;19.98;39.75;99745.16;5077255;28;791;-58
2021/01/24 06:22:19;;;;;;;;;;;;;;;19.96;39.74;99750.19;5071596;28;946;-57
2021/01/24 06:24:45;;;;;;;;;;;;;;;20.22;39.27;99759.66;5039305;28;866;-57
2021/01/24 06:27:11;;;;;;;;;;;;;;;20.25;38.92;99764.50;5039301;28;799;-46
2021/01/24 06:29:36;;;;;;;;;;;;;;;20.23;39.12;99761.25;5056632;28;1941;-47
2021/01/24 06:32:01;;;;;;;;;;;;;;;20.18;39.12;99760.25;5039300;28;860;-57
2021/01/24 06:34:33;;;;;;;;;;;;;;;20.08;39.34;99766.09;5039121;28;812;-53
2021/01/24 06:37:05;;;;;;;;;;;;;;;19.89;39.85;99769.13;5056098;28;947;-52
2021/01/24 06:39:31;;;;;;;;;;;;;;;20.06;39.35;99760.09;5056811;28;784;-57
2021/01/24 06:41:56;;;;;;;;;;;;;;;20.06;39.51;99765.59;5059952;28;833;-55
2021/01/24 06:44:40;;;;;;;;;;;;;;;20.35;38.76;99769.72;5075470;28;775;-56
2021/01/24 06:47:07;;;;;;;;;;;;;;;20.17;39.36;99771.63;5076756;28;824;-56
2021/01/24 06:49:41;;;;;;;;;;;;;;;20.18;39.07;99776.81;5076584;28;1959;-57
2021/01/24 06:52:14;;;;;;;;;;;;;;;20.08;39.57;99768.88;5072567;28;1020;-56
2021/01/24 06:54:39;;;;;;;;;;;;;;;20.18;39.34;99762.22;5056541;28;795;-48
2021/01/24 06:57:08;;;;;;;;;;;;;;;20.26;39.20;99768.88;5056265;28;839;-55
2021/01/24 06:59:33;;;;;;;;;;;;;;;20.24;39.20;99780.25;5056145;28;871;-58
2021/01/24 07:02:17;;;;;;;;;;;;;;;19.96;39.75;99775.03;5056581;28;780;-50
2021/01/24 07:04:42;;;;;;;;;;;;;;;20.02;39.84;99783.97;5056231;28;768;-57
2021/01/24 07:07:11;;;;;;;;;;;;;;;19.88;39.98;99774.97;5021493;28;1262;-52
2021/01/24 07:09:37;;;;;;;;;;;;;;;19.66;40.42;99776.69;5056154;28;1975;-50
2021/01/24 07:12:03;;;;;;;;;;;;;;;19.91;39.67;99772.41;5056134;28;487;-48
2021/01/24 07:14:31;;;;;;;;;;;;;;;19.97;39.68;99764.78;5061832;28;821;-53
2021/01/24 07:17:00;;;;;;;;;;;;;;;19.80;40.04;99765.56;5076263;28;803;-56
2021/01/24 07:19:26;;;;;;;;;;;;;;;19.90;40.12;99769.97;5056045;28;753;-57
2021/01/24 07:21:52;;;;;;;;;;;;;;;19.94;39.87;99776.47;5039116;28;908;-48
2021/01/24 07:24:17;;;;;;;;;;;;;;;19.89;39.79;99779.38;5058034;28;889;-48
2021/01/24 07:26:43;;;;;;;;;;;;;;;19.77;40.31;99778.00;5076396;28;767;-57
2021/01/24 07:29:08;;;;;;;;;;;;;;;19.92;39.74;99784.25;5041178;28;1975;-54
2021/01/24 07:31:34;;;;;;;;;;;;;;;19.91;39.87;99782.59;5057659;28;886;-60
2021/01/24 07:33:59;;;;;;;;;;;;;;;19.96;39.63;99788.81;5075882;28;1005;-55
2021/01/24 07:36:25;;;;;;;;;;;;;;;19.99;39.71;99798.38;5057219;28;839;-58
2021/01/24 07:39:15;;;;;;;;;;;;;;;20.05;39.42;99799.88;5040024;28;967;-47
2021/01/24 07:41:44;;;;;;;;;;;;;;;20.05;39.45;99801.81;5055757;28;788;-57
2021/01/24 07:44:10;;;;;;;;;;;;;;;20.05;39.41;99794.34;5037927;28;1209;-54
2021/01/24 07:46:35;;;;;;;;;;;;;;;20.07;39.36;99800.34;5045724;28;898;-58
2021/01/24 07:49:01;;;;;;;;;;;;;;;20.13;39.27;99806.53;5076175;28;1969;-55
2021/01/24 07:51:26;;;;;;;;;;;;;;;20.02;39.55;99797.75;5075884;28;827;-58
2021/01/24 07:53:52;;;;;;;;;;;;;;;20.00;39.56;99800.00;5057724;28;961;-59
2021/01/24 07:56:17;;;;;;;;;;;;;;;19.94;39.73;99796.59;5055636;28;812;-57
2021/01/24 07:58:43;;;;;;;;;;;;;;;19.90;39.75;99803.88;5021434;28;944;-58
2021/01/24 08:01:08;;;;;;;;;;;;;;;19.83;39.89;99809.06;5037989;28;886;-56
2021/01/24 08:03:34;;;;;;;;;;;;;;;19.82;39.99;99794.47;5055581;28;791;-55
2021/01/24 08:06:09;;;;;;;;;;;;;;;19.94;39.90;99798.53;5037764;28;768;-57
2021/01/24 08:11:43;;;;;;;;;;;;;;;19.94;39.61;99799.34;5054875;28;1108;-59
2021/01/24 08:14:09;;;;;;;;;;;;;;;19.67;40.39;99790.16;5055214;28;879;-58
2021/01/24 08:16:36;;;;;;;;;;;;;;;19.92;39.73;99789.75;5038043;28;788;-57
2021/01/24 08:19:02;;;;;;;;;;;;;;;19.98;39.85;99786.53;5054143;28;1259;-58
2021/01/24 08:21:28;;;;;;;;;;;;;;;20.07;39.55;99772.75;5057318;28;752;-55
2021/01/24 08:23:54;;;;;;;;;;;;;;;20.03;39.48;99784.75;5057603;28;916;-60
2021/01/24 08:26:19;;;;;;;;;;;;;;;20.05;39.58;99788.00;5037888;28;832;-48
2021/01/24 08:28:46;;;;;;;;;;;;;;;20.15;39.37;99782.19;5037183;28;756;-58
2021/01/24 08:31:16;;;;;;;;;;;;;;;20.25;39.11;99787.41;5055823;28;736;-59
2021/01/24 08:33:41;;;;;;;;;;;;;;;20.22;39.17;99784.50;5055339;28;788;-56
2021/01/24 08:36:17;;;;;;;;;;;;;;;20.21;39.23;99782.84;5054871;28;752;-56
2021/01/24 08:38:43;;;;;;;;;;;;;;;20.18;39.19;99787.06;5058688;28;959;-57
2021/01/24 08:41:13;;;;;;;;;;;;;;;20.24;39.33;99791.28;5041884;28;769;-57
2021/01/24 08:43:38;;;;;;;;;;;;;;;20.14;39.56;99788.84;5058476;28;821;-57
2021/01/24 08:46:20;;;;;;;;;;;;;;;20.20;39.29;99795.81;5058909;28;760;-56
2021/01/24 08:48:57;;;;;;;;;;;;;;;20.24;39.17;99785.75;5040705;28;740;-63
2021/01/24 08:51:22;;;;;;;;;;;;;;;20.30;38.96;99800.22;5067704;28;864;-55
2021/01/24 08:53:47;;;;;;;;;;;;;;;20.22;39.06;99787.25;5046589;28;910;-53
2021/01/24 08:56:19;;;;;;;;;;;;;;;20.29;39.28;99793.09;5058585;28;748;-57
2021/01/24 08:58:44;;;;;;;;;;;;;;;20.35;39.07;99800.06;5058615;28;775;-57
2021/01/24 09:01:10;;;;;;;;;;;;;;;20.44;38.92;99802.84;5058717;28;752;-47
2021/01/24 09:03:35;;;;;;;;;;;;;;;20.45;39.01;99797.00;5058508;28;740;-57
2021/01/24 09:06:16;;;;;;;;;;;;;;;20.34;39.02;99790.16;5058907;28;884;-54
2021/01/24 09:08:59;;;;;;;;;;;;;;;20.33;39.02;99799.59;5058428;28;1006;-57
2021/01/24 09:11:42;;;;;;;;;;;;;;;20.33;39.01;99794.88;5057610;28;1004;-57
2021/01/24 09:14:08;;;;;;;;;;;;;;;20.43;38.78;99792.97;5058657;28;771;-57
2021/01/24 09:16:33;;;;;;;;;;;;;;;20.03;39.68;99793.84;5058378;28;811;-58
2021/01/24 09:18:59;;;;;;;;;;;;;;;20.23;39.30;99780.56;5074531;28;1112;-52
2021/01/24 09:21:24;;;;;;;;;;;;;;;20.29;39.13;99782.06;5060632;28;643;-55
2021/01/24 09:23:52;;;;;;;;;;;;;;;20.32;39.29;99781.41;5071966;28;954;-54
2021/01/24 09:26:18;;;;;;;;;;;;;;;20.33;39.03;99777.53;5078187;28;779;-60
2021/01/24 09:28:43;;;;;;;;;;;;;;;20.28;39.11;99781.22;5078241;28;871;-48
2021/01/24 09:31:09;;;;;;;;;;;;;;;20.46;38.95;99782.06;5077962;28;1902;-49
2021/01/24 09:33:34;;;;;;;;;;;;;;;20.46;39.03;99776.53;5076833;28;858;-58
2021/01/24 09:35:59;;;;;;;;;;;;;;;20.48;38.88;99776.22;5078056;28;911;-57
2021/01/24 09:38:52;;;;;;;;;;;;;;;20.42;38.80;99774.75;5063891;28;1016;-60
2021/01/24 09:41:17;;;;;;;;;;;;;;;20.48;38.73;99788.09;5057700;28;824;-52
2021/01/24 09:43:43;;;;;;;;;;;;;;;20.44;38.89;99786.28;5057948;28;831;-53
2021/01/24 09:46:08;;;;;;;;;;;;;;;20.43;39.03;99777.19;5057560;28;870;-55
2021/01/24 09:48:34;;;;;;;;;;;;;;;20.48;38.79;99779.81;5056551;28;772;-50
2021/01/24 09:50:59;;;;;;;;;;;;;;;20.37;39.29;99786.78;5058921;28;1905;-56
2021/01/24 09:53:24;;;;;;;;;;;;;;;20.42;39.19;99780.28;5060675;28;827;-57
2021/01/24 09:55:50;;;;;;;;;;;;;;;20.65;38.80;99786.44;5067113;28;888;-55
2021/01/24 09:58:15;;;;;;;;;;;;;;;20.68;38.46;99788.59;5077521;28;744;-57
2021/01/24 10:00:41;;;;;;;;;;;;;;;20.67;38.68;99798.00;5077291;28;771;-57
2021/01/24 10:03:06;;;;;;;;;;;;;;;20.66;38.72;99808.25;5077259;28;751;-56
2021/01/24 10:05:31;;;;;;;;;;;;;;;20.85;38.07;99809.88;5077365;28;760;-56
2021/01/24 10:07:57;;;;;;;;;;;;;;;20.89;38.02;99804.50;5066845;28;1009;-56
2021/01/24 10:10:22;;;;;;;;;;;;;;;20.89;38.29;99796.22;5056634;28;1910;-63
2021/01/24 10:12:48;;;;;;;;;;;;;;;20.83;38.29;99801.94;5057683;28;799;-58
2021/01/24 10:15:13;;;;;;;;;;;;;;;20.80;38.28;99805.34;5057202;28;791;-55
2021/01/24 10:17:39;;;;;;;;;;;;;;;20.44;39.03;99803.69;5062207;28;1196;-55
2021/01/24 10:20:04;;;;;;;;;;;;;;;20.66;38.54;99808.25;5077093;28;752;-60
2021/01/24 10:22:30;;;;;;;;;;;;;;;20.61;38.95;99810.34;5070936;28;986;-64
2021/01/24 10:24:55;;;;;;;;;;;;;;;20.72;38.64;99805.31;5056795;28;760;-60
2021/01/24 10:27:21;;;;;;;;;;;;;;;20.88;38.18;99813.94;5061417;28;881;-58
2021/01/24 10:29:46;;;;;;;;;;;;;;;20.71;38.58;99810.03;5076783;28;1910;-60
2021/01/24 10:32:12;;;;;;;;;;;;;;;20.65;38.60;99800.25;5076886;28;836;-48
2021/01/24 10:34:37;;;;;;;;;;;;;;;20.71;38.52;99796.25;5076742;28;831;-59
2021/01/24 10:37:02;;;;;;;;;;;;;;;20.75;38.42;99791.69;5074008;28;961;-61
2021/01/24 10:39:28;;;;;;;;;;;;;;;20.73;38.59;99796.72;5056587;28;807;-60
2021/01/24 10:41:53;;;;;;;;;;;;;;;20.72;38.70;99794.28;5056534;28;768;-61
2021/01/24 10:44:19;;;;;;;;;;;;;;;20.78;38.47;99798.50;5056594;28;820;-58
2021/01/24 10:46:44;;;;;;;;;;;;;;;20.86;38.42;99800.47;5057024;28;776;-59
2021/01/24 10:49:10;;;;;;;;;;;;;;;20.88;38.55;99797.38;5038479;28;1906;-51
2021/01/24 10:51:36;;;;;;;;;;;;;;;20.77;38.50;99802.41;5056763;28;740;-58
2021/01/24 10:54:01;;;;;;;;;;;;;;;20.80;38.68;99797.06;5056176;28;900;-56
2021/01/24 10:56:27;;;;;;;;;;;;;;;20.80;38.70;99802.59;5056277;28;815;-56
2021/01/24 10:58:52;;;;;;;;;;;;;;;20.79;38.48;99800.13;5055876;28;796;-48
2021/01/24 11:01:18;;;;;;;;;;;;;;;20.80;38.81;99807.28;5075071;28;1138;-59
2021/01/24 11:03:43;;;;;;;;;;;;;;;20.84;38.59;99803.53;5076416;28;544;-60
2021/01/24 11:06:09;;;;;;;;;;;;;;;20.91;38.37;99800.28;5076399;28;474;-57
2021/01/24 11:11:44;;;;;;;;;;;;;;;20.77;38.76;99813.47;5055844;28;1418;-55
2021/01/24 11:14:09;;;;;;;;;;;;;;;20.91;38.50;99800.28;5056255;28;784;-55
2021/01/24 11:16:34;;;;;;;;;;;;;;;20.71;38.65;99810.03;5056293;28;780;-53
2021/01/24 11:19:01;;;;;;;;;;;;;;;20.48;39.13;99790.84;5054400;28;1139;-55
2021/01/24 11:21:27;;;;;;;;;;;;;;;20.69;38.94;99790.22;5076101;28;768;-56
2021/01/24 11:23:52;;;;;;;;;;;;;;;20.55;39.01;99779.28;5055704;28;931;-57
2021/01/24 11:26:18;;;;;;;;;;;;;;;20.27;39.78;99773.28;5055811;28;745;-48
2021/01/24 11:28:43;;;;;;;;;;;;;;;19.99;40.39;99757.81;5056029;28;764;-59
2021/01/24 11:31:09;;;;;;;;;;;;;;;20.30;39.81;99756.06;5055594;28;1913;-60
2021/01/24 11:33:34;;;;;;;;;;;;;;;20.17;39.95;99747.63;5075621;28;764;-59
2021/01/24 11:35:59;;;;;;;;;;;;;;;19.86;40.60;99753.22;5075931;28;868;-59
2021/01/24 11:38:25;;;;;;;;;;;;;;;20.02;40.21;99756.38;5061991;28;969;-58
2021/01/24 11:41:22;;;;;;;;;;;;;;;20.14;40.16;99739.97;5055956;28;602;-56
2021/01/24 11:43:48;;;;;;;;;;;;;;;20.34;39.61;99752.34;5055840;28;772;-49
2021/01/24 11:46:13;;;;;;;;;;;;;;;20.36;39.76;99749.25;5055944;28;824;-48
2021/01/24 11:48:38;;;;;;;;;;;;;;;20.47;39.11;99756.06;5055683;28;784;-49
2021/01/24 11:51:04;;;;;;;;;;;;;;;20.41;39.34;99757.38;5055570;28;1906;-61
2021/01/24 11:53:30;;;;;;;;;;;;;;;20.37;39.65;99756.41;5037060;28;1168;-62
2021/01/24 11:55:55;;;;;;;;;;;;;;;20.47;39.21;99756.06;5055789;28;787;-60
2021/01/24 11:58:20;;;;;;;;;;;;;;;20.40;39.44;99755.75;5055466;28;827;-56
2021/01/24 12:00:46;;;;;;;;;;;;;;;20.34;39.53;99757.03;5056102;28;784;-50
2021/01/24 12:03:11;;;;;;;;;;;;;;;20.16;39.85;99750.69;5055606;28;835;-46
2021/01/24 12:05:37;;;;;;;;;;;;;;;19.91;40.87;99755.03;5074360;28;888;-48
2021/01/24 12:08:03;;;;;;;;;;;;;;;20.22;40.12;99752.16;5064764;28;1009;-63
2021/01/24 12:10:28;;;;;;;;;;;;;;;20.26;39.90;99744.03;5054877;28;1902;-56
2021/01/24 12:12:54;;;;;;;;;;;;;;;20.22;39.82;99748.59;5040424;28;827;-54
2021/01/24 12:15:19;;;;;;;;;;;;;;;20.25;39.88;99745.19;5059491;28;776;-49
2021/01/24 12:17:44;;;;;;;;;;;;;;;20.17;39.94;99755.91;5065368;28;1131;-48
2021/01/24 12:20:11;;;;;;;;;;;;;;;19.97;40.38;99756.50;5079071;28;761;-53
2021/01/24 12:22:36;;;;;;;;;;;;;;;20.15;40.08;99751.84;5072155;28;971;-58
2021/01/24 12:25:02;;;;;;;;;;;;;;;20.27;39.77;99763.06;5059010;28;772;-57
2021/01/24 12:27:27;;;;;;;;;;;;;;;20.39;39.45;99764.38;5041369;28;768;-58
2021/01/24 12:29:53;;;;;;;;;;;;;;;20.51;39.37;99767.28;5059177;28;1910;-60
2021/01/24 12:32:18;;;;;;;;;;;;;;;20.51;39.46;99772.81;5058807;28;852;-49
2021/01/24 12:34:44;;;;;;;;;;;;;;;20.32;39.63;99770.38;5059003;28;824;-55
2021/01/24 12:37:09;;;;;;;;;;;;;;;20.42;39.62;99774.75;5068965;28;892;-56
2021/01/24 12:39:35;;;;;;;;;;;;;;;20.40;39.45;99777.00;5058391;28;840;-58
2021/01/24 12:42:03;;;;;;;;;;;;;;;20.15;40.28;99776.69;5059606;28;777;-56
2021/01/24 12:44:28;;;;;;;;;;;;;;;20.09;40.19;99780.72;5058924;28;839;-50
2021/01/24 12:46:54;;;;;;;;;;;;;;;20.21;39.95;99771.81;5040918;28;901;-53
2021/01/24 12:49:19;;;;;;;;;;;;;;;20.46;39.53;99770.22;5059134;28;1906;-56
2021/01/24 12:51:45;;;;;;;;;;;;;;;20.31;39.90;99771.50;5058585;28;998;-60
2021/01/24 12:54:10;;;;;;;;;;;;;;;20.39;39.51;99773.44;5058355;28;757;-57
2021/01/24 12:56:36;;;;;;;;;;;;;;;20.44;39.70;99778.81;5059126;28;811;-57
2021/01/24 12:59:01;;;;;;;;;;;;;;;20.43;39.38;99782.72;5058911;28;767;-54
2021/01/24 13:01:27;;;;;;;;;;;;;;;20.39;39.77;99781.72;5058235;28;914;-58
2021/01/24 13:03:52;;;;;;;;;;;;;;;20.62;39.26;99784.34;5058868;28;779;-52
2021/01/24 13:06:18;;;;;;;;;;;;;;;20.54;39.31;99790.66;5058478;28;771;-59
2021/01/24 13:09:07;;;;;;;;;;;;;;;20.61;39.07;99789.06;5066326;28;928;-57
2021/01/24 13:11:45;;;;;;;;;;;;;;;20.61;39.29;99788.25;5078340;28;1028;-55
2021/01/24 13:14:10;;;;;;;;;;;;;;;20.68;39.10;99789.41;5078402;28;772;-57
2021/01/24 13:16:36;;;;;;;;;;;;;;;20.59;39.42;99785.78;5078237;28;732;-59
2021/01/24 13:19:01;;;;;;;;;;;;;;;20.73;39.14;99788.41;5078229;28;1209;-54
2021/01/24 13:21:27;;;;;;;;;;;;;;;20.65;39.17;99786.44;5078141;28;800;-56
2021/01/24 13:23:53;;;;;;;;;;;;;;;20.62;39.22;99789.84;5059765;28;1006;-57
2021/01/24 13:26:19;;;;;;;;;;;;;;;20.68;39.29;99788.59;5058591;28;807;-54